Wilson Cadiz — 8PSY — position and weather

sailwx.info

Track history (hours):
 
Tides and Currents Weather Stations Pressure Air Temp Water Temp Dewpoint Dewpoint Depression Visibility Wind Speed Wind Dir Waves Ship Positions

Wilson Cadiz

Last reported at 2017-Aug-16 21:23 UTC. Time now 2017-Aug-18 16:08 UTC.
Position N 54°40' W 001°07'.

Length 100 m; draft 3.5 m.

Type: Ship. MMSI: 314216000.

Date/timePositionNaut miles runAvg speedWind from/ knotsBaromVisibWave heightAir tempDewpointWater temp
2017-Aug-16 21:23N 54°40' W 001°07'3 9.1
2017-Aug-16 21:00N 54°42' W 001°02'1 1.5
2017-Aug-16 20:22N 54°42' W 001°00'0 0.0
2017-Aug-16 19:52N 54°42' W 001°00'0 0.0
2017-Aug-16 19:25N 54°42' W 001°00'0 0.0
2017-Aug-16 18:55N 54°42' W 001°00'0 0.0
2017-Aug-16 16:43N 54°42' W 001°00'0 0.0
2017-Aug-16 16:25N 54°42' W 001°00'0 0.1
2017-Aug-16 15:55N 54°42' W 001°00'0 0.0
2017-Aug-16 15:25N 54°42' W 001°00'0 0.0
2017-Aug-16 14:58N 54°42' W 001°00'0 0.0
2017-Aug-16 14:28N 54°42' W 001°00'0 0.0
2017-Aug-16 13:58N 54°42' W 001°00'0 0.0
2017-Aug-16 13:28N 54°42' W 001°00'0 0.0
2017-Aug-16 12:58N 54°42' W 001°00'0 0.1
2017-Aug-16 12:28N 54°42' W 001°00'0 0.0
2017-Aug-16 11:58N 54°42' W 001°00'0 0.0
2017-Aug-16 11:04N 54°42' W 001°00'0 0.0
2017-Aug-16 10:49N 54°42' W 001°00'0 0.0
2017-Aug-16 10:28N 54°42' W 001°00'0 0.0
2017-Aug-16 09:49N 54°42' W 001°00'0 0.0
2017-Aug-16 09:19N 54°42' W 001°00'0 0.0
2017-Aug-16 08:49N 54°42' W 001°00'0 0.0
2017-Aug-16 08:22N 54°42' W 001°00'0 0.0
2017-Aug-16 07:52N 54°42' W 001°00'0 0.1
2017-Aug-16 07:22N 54°42' W 001°00'0 0.1
2017-Aug-16 06:37N 54°42' W 001°00'0 0.0
2017-Aug-16 06:22N 54°42' W 001°00'0 0.1
2017-Aug-16 05:52N 54°42' W 001°00'0 0.0
2017-Aug-16 05:25N 54°42' W 001°00'0 0.0
2017-Aug-16 04:55N 54°42' W 001°00'0 0.0
2017-Aug-16 02:43N 54°42' W 001°00'0 0.0
2017-Aug-16 02:28N 54°42' W 001°00'0 0.8
2017-Aug-16 02:00N 54°42' W 000°60'1912.0
2017-Aug-16 00:23N 54°33' W 000°30'411.6
2017-Aug-16 00:00N 54°31' W 000°23'611.1
2017-Aug-15 23:30N 54°27' W 000°15'611.2
2017-Aug-15 23:01N 54°23' W 000°10'511.0
2017-Aug-15 22:31N 54°18' W 000°04'611.0
2017-Aug-15 22:01N 54°14' E 000°01'510.7
2017-Aug-15 21:30N 54°10' E 000°07'510.8
2017-Aug-15 21:01N 54°06' E 000°13'511.0
2017-Aug-15 20:31N 54°01' E 000°18'611.2
2017-Aug-15 19:58N 53°56' E 000°25'5012.9
2017-Aug-15 16:05N 53°17' E 001°16'112.9
2017-Aug-15 16:00N 53°16' E 001°17'612.3
2017-Aug-15 15:30N 53°11' E 001°22'611.8
2017-Aug-15 15:00N 53°07' E 001°30'611.6
2017-Aug-15 14:30N 53°03' E 001°37'611.2
2017-Aug-15 14:00N 52°60' E 001°45'510.7
2017-Aug-15 13:30N 52°56' E 001°51'510.5
2017-Aug-15 13:00N 52°53' E 001°59'510.2
2017-Aug-15 12:30N 52°50' E 002°04'510.4
2017-Aug-15 12:00N 52°45' E 002°09'6211.8
2017-Aug-15 06:45N 51°54' E 003°07'412.7
2017-Aug-15 06:25N 51°50' E 003°09'512.3
2017-Aug-15 06:00N 51°46' E 003°14'611.8
2017-Aug-15 05:30N 51°41' E 003°19'612.4
2017-Aug-15 05:00N 51°36' E 003°24'611.7
2017-Aug-15 04:30N 51°30' E 003°28'510.4
2017-Aug-15 04:00N 51°27' E 003°34'4 8.3
2017-Aug-15 03:30N 51°25' E 003°40'611.1
2017-Aug-15 03:00N 51°22' E 003°47'2 4.8
2017-Aug-15 02:30N 51°20' E 003°49'0 0.9
2017-Aug-15 02:00N 51°19' E 003°49'1 1.6
2017-Aug-15 01:30N 51°18' E 003°50'4 7.0
2017-Aug-15 01:01N 51°15' E 003°49'4 8.3
2017-Aug-15 00:30N 51°11' E 003°48'4 9.0
2017-Aug-15 00:01N 51°07' E 003°45'1 2.8
2017-Aug-14 23:30N 51°06' E 003°44'0 0.0
2017-Aug-14 23:00N 51°06' E 003°44'0 0.0
2017-Aug-14 22:27N 51°06' E 003°44'0 0.0
2017-Aug-14 22:00N 51°06' E 003°44'0 0.0
2017-Aug-14 21:30N 51°06' E 003°44'0 0.0
2017-Aug-14 21:00N 51°06' E 003°44'0 0.0
2017-Aug-14 20:27N 51°06' E 003°44'0 0.0
2017-Aug-14 19:57N 51°06' E 003°44'0 0.0
2017-Aug-14 19:27N 51°06' E 003°44'0 0.0
2017-Aug-14 19:00N 51°06' E 003°44'0 0.0
2017-Aug-14 18:30N 51°06' E 003°44'0 0.0
2017-Aug-14 18:00N 51°06' E 003°44'0 0.0
2017-Aug-14 17:30N 51°06' E 003°44'0 0.0
2017-Aug-14 17:00N 51°06' E 003°44'0 0.0
2017-Aug-14 16:27N 51°06' E 003°44'0 0.0
2017-Aug-14 15:57N 51°06' E 003°44'0 0.0
2017-Aug-14 15:30N 51°06' E 003°44'0 0.0
2017-Aug-14 15:00N 51°06' E 003°44'0 0.0
2017-Aug-14 14:24N 51°06' E 003°44'0 0.0
2017-Aug-14 14:00N 51°06' E 003°44'0 0.0
2017-Aug-14 13:30N 51°06' E 003°44'0 0.0
2017-Aug-14 13:00N 51°06' E 003°44'0 0.0
2017-Aug-14 12:30N 51°06' E 003°44'0 0.0
2017-Aug-14 11:57N 51°06' E 003°44'0 0.0
2017-Aug-14 11:30N 51°06' E 003°44'0 0.0
2017-Aug-14 10:57N 51°06' E 003°44'0 0.0
2017-Aug-14 10:30N 51°06' E 003°44'0 0.0
2017-Aug-14 10:00N 51°06' E 003°44'0 0.0
2017-Aug-14 09:30N 51°06' E 003°44'0 0.0
2017-Aug-14 09:00N 51°06' E 003°44'0 0.0
2017-Aug-14 08:30N 51°06' E 003°44'0 0.0
2017-Aug-14 07:57N 51°06' E 003°44'0 0.0
2017-Aug-14 07:28N 51°06' E 003°44'0 0.0
2017-Aug-14 06:55N 51°06' E 003°44'0 0.0
2017-Aug-14 06:25N 51°06' E 003°44'0 0.0
2017-Aug-14 05:55N 51°06' E 003°44'0 0.0
2017-Aug-14 05:28N 51°06' E 003°44'0 0.0
2017-Aug-14 04:58N 51°06' E 003°44'0 0.0
2017-Aug-14 04:25N 51°06' E 003°44'0 0.0
2017-Aug-14 03:58N 51°06' E 003°44'0 0.0
2017-Aug-14 03:22N 51°06' E 003°44'0 0.0
2017-Aug-14 02:58N 51°06' E 003°44'0 0.0
2017-Aug-14 02:25N 51°06' E 003°44'0 0.0
2017-Aug-14 01:58N 51°06' E 003°44'0 0.0
2017-Aug-14 01:25N 51°06' E 003°44'0 0.0
2017-Aug-14 00:58N 51°06' E 003°44'0 0.0
2017-Aug-14 00:28N 51°06' E 003°44'0 0.0
2017-Aug-13 23:55N 51°06' E 003°44'0 0.0
2017-Aug-13 23:28N 51°06' E 003°44'0 0.0
2017-Aug-13 22:58N 51°06' E 003°44'0 0.0
2017-Aug-13 22:28N 51°06' E 003°44'0 0.0
2017-Aug-13 21:58N 51°06' E 003°44'0 0.0
2017-Aug-13 21:25N 51°06' E 003°44'0 0.0
2017-Aug-13 20:58N 51°06' E 003°44'0 0.0
2017-Aug-13 20:25N 51°06' E 003°44'0 0.0
2017-Aug-13 19:55N 51°06' E 003°44'0 0.0
2017-Aug-13 19:25N 51°06' E 003°44'0 0.0
2017-Aug-13 18:58N 51°06' E 003°44'0 0.0
2017-Aug-13 18:25N 51°06' E 003°44'0 0.0
2017-Aug-13 17:58N 51°06' E 003°44'0 0.0
2017-Aug-13 17:28N 51°06' E 003°44'0 0.0
2017-Aug-13 16:58N 51°06' E 003°44'0 0.0
2017-Aug-13 16:22N 51°06' E 003°44'0 0.0
2017-Aug-13 15:58N 51°06' E 003°44'0 0.0
2017-Aug-13 15:28N 51°06' E 003°44'0 0.0
2017-Aug-13 14:55N 51°06' E 003°44'0 0.0
2017-Aug-13 14:28N 51°06' E 003°44'0 0.0
2017-Aug-13 13:58N 51°06' E 003°44'0 0.0
2017-Aug-13 13:28N 51°06' E 003°44'0 0.0
2017-Aug-13 12:55N 51°06' E 003°44'0 0.0
2017-Aug-13 12:28N 51°06' E 003°44'0 0.0
2017-Aug-13 11:55N 51°06' E 003°44'0 0.0
2017-Aug-13 11:28N 51°06' E 003°44'0 0.0
2017-Aug-13 10:55N 51°06' E 003°44'0 0.0
2017-Aug-13 10:28N 51°06' E 003°44'0 0.0
2017-Aug-13 09:55N 51°06' E 003°44'0 0.0
2017-Aug-13 09:28N 51°06' E 003°44'0 0.0
2017-Aug-13 08:55N 51°06' E 003°44'0 0.0
2017-Aug-13 08:28N 51°06' E 003°44'0 0.0
2017-Aug-13 07:58N 51°06' E 003°44'0 0.0
2017-Aug-13 07:25N 51°06' E 003°44'0 0.0
2017-Aug-13 06:58N 51°06' E 003°44'0 0.0
2017-Aug-13 06:25N 51°06' E 003°44'0 0.0
2017-Aug-13 05:58N 51°06' E 003°44'0 0.0
2017-Aug-13 05:25N 51°06' E 003°44'0 0.0
2017-Aug-13 04:58N 51°06' E 003°44'0 0.0
2017-Aug-13 04:25N 51°06' E 003°44'0 0.0
2017-Aug-13 03:58N 51°06' E 003°44'0 0.0
2017-Aug-13 03:25N 51°06' E 003°44'0 0.0
2017-Aug-13 02:58N 51°06' E 003°44'0 0.0
2017-Aug-13 02:25N 51°06' E 003°44'0 0.0
2017-Aug-13 01:58N 51°06' E 003°44'0 0.0
2017-Aug-13 01:28N 51°06' E 003°44'0 0.0
2017-Aug-13 00:58N 51°06' E 003°44'0 0.0
2017-Aug-13 00:25N 51°06' E 003°44'0 0.0
2017-Aug-12 23:58N 51°06' E 003°44'0 0.0
2017-Aug-12 23:28N 51°06' E 003°44'0 0.0
2017-Aug-12 22:55N 51°06' E 003°44'0 0.0
2017-Aug-12 22:28N 51°06' E 003°44'0 0.0
2017-Aug-12 21:55N 51°06' E 003°44'0 0.0
2017-Aug-12 21:28N 51°06' E 003°44'0 0.0
2017-Aug-12 20:58N 51°06' E 003°44'0 0.0
2017-Aug-12 20:25N 51°06' E 003°44'0 0.0
2017-Aug-12 19:58N 51°06' E 003°44'0 0.0
2017-Aug-12 19:19N 51°06' E 003°44'0 0.0
2017-Aug-12 18:55N 51°06' E 003°44'0 0.0
2017-Aug-12 18:28N 51°06' E 003°44'0 0.0
2017-Aug-12 17:55N 51°06' E 003°44'0 0.0
2017-Aug-12 17:28N 51°06' E 003°44'0 0.0
2017-Aug-12 16:58N 51°06' E 003°44'0 0.0
2017-Aug-12 16:25N 51°06' E 003°44'0 0.0
2017-Aug-12 15:58N 51°06' E 003°44'0 0.0
2017-Aug-12 15:25N 51°06' E 003°44'0 0.0
2017-Aug-12 14:58N 51°06' E 003°44'0 0.0
2017-Aug-12 14:25N 51°06' E 003°44'0 0.0
2017-Aug-12 13:58N 51°06' E 003°44'0 0.0
2017-Aug-12 13:25N 51°06' E 003°44'0 0.0
2017-Aug-12 12:58N 51°06' E 003°44'0 0.0
2017-Aug-12 12:25N 51°06' E 003°44'0 0.0
2017-Aug-12 11:55N 51°06' E 003°44'0 0.0
2017-Aug-12 11:28N 51°06' E 003°44'0 0.0
2017-Aug-12 10:55N 51°06' E 003°44'0 0.0
2017-Aug-12 10:25N 51°06' E 003°44'0 0.0
2017-Aug-12 09:55N 51°06' E 003°44'0 0.0
2017-Aug-12 09:28N 51°06' E 003°44'0 0.0
2017-Aug-12 08:58N 51°06' E 003°44'0 0.0
2017-Aug-12 08:22N 51°06' E 003°44'0 0.0
2017-Aug-12 07:58N 51°06' E 003°44'0 0.0
2017-Aug-12 07:28N 51°06' E 003°44'0 0.0
2017-Aug-12 06:58N 51°06' E 003°44'0 0.0
2017-Aug-12 06:28N 51°06' E 003°44'0 0.0
2017-Aug-12 05:58N 51°06' E 003°44'0 0.0
2017-Aug-12 05:28N 51°06' E 003°44'0 0.0
2017-Aug-12 04:55N 51°06' E 003°44'0 0.0
2017-Aug-12 04:28N 51°06' E 003°44'0 0.0
2017-Aug-12 03:58N 51°06' E 003°44'0 0.0
2017-Aug-12 03:25N 51°06' E 003°44'0 0.0
2017-Aug-12 02:58N 51°06' E 003°44'0 0.0
2017-Aug-12 02:22N 51°06' E 003°44'0 0.0
2017-Aug-12 01:58N 51°06' E 003°44'0 0.0
2017-Aug-12 01:28N 51°06' E 003°44'0 0.0
2017-Aug-12 01:00N 51°06' E 003°44'1 2.9
2017-Aug-12 00:31N 51°07' E 003°45'4 7.8
2017-Aug-12 00:00N 51°10' E 003°48'4 7.8
2017-Aug-11 23:31N 51°14' E 003°49'4 7.1
2017-Aug-11 23:00N 51°18' E 003°50'2 4.3
2017-Aug-11 22:30N 51°20' E 003°49'0 0.5
2017-Aug-11 22:00N 51°20' E 003°49'3 5.5
2017-Aug-11 21:30N 51°22' E 003°45'4 8.9
2017-Aug-11 21:01N 51°25' E 003°40'4 8.9
2017-Aug-11 20:30N 51°26' E 003°33'4 7.9
2017-Aug-11 20:00N 51°25' E 003°27'5 9.0
2017-Aug-11 19:30N 51°24' E 003°20'5 9.4
2017-Aug-11 19:00N 51°23' E 003°13'510.5
2017-Aug-11 18:30N 51°22' E 003°04'611.2
2017-Aug-11 18:00N 51°22' E 002°55'611.5
2017-Aug-11 17:30N 51°22' E 002°46'3 6.9
2017-Aug-11 17:00N 51°22' E 002°41'4 7.0
2017-Aug-11 16:30N 51°22' E 002°35'4 7.9
2017-Aug-11 16:00N 51°22' E 002°29'4 8.4
2017-Aug-11 15:30N 51°20' E 002°23'4 8.7
2017-Aug-11 15:00N 51°17' E 002°17'4 8.0
2017-Aug-11 14:30N 51°15' E 002°11'10 9.6
2017-Aug-11 13:30N 51°11' E 001°58'612.8
2017-Aug-11 13:00N 51°07' E 001°49'612.7
2017-Aug-11 12:30N 51°03' E 001°42'612.2
2017-Aug-11 12:00N 50°59' E 001°35'611.3
2017-Aug-11 11:30N 50°54' E 001°29'510.3
2017-Aug-11 11:00N 50°50' E 001°26'510.1
2017-Aug-11 10:29N 50°45' E 001°23'52 9.6
2017-Aug-11 05:06N 50°23' E 000°08'3 9.3
2017-Aug-11 04:44N 50°22' E 000°03'2 9.3
2017-Aug-11 04:30N 50°22' E 000°00'510.1
2017-Aug-11 04:00N 50°27' W 000°03'510.7
2017-Aug-11 03:30N 50°32' W 000°04'510.6
2017-Aug-11 03:00N 50°37' W 000°04'611.4
2017-Aug-11 02:30N 50°42' E 000°00'5 9.9
2017-Aug-11 02:00N 50°47' E 000°03'0 0.7
2017-Aug-11 01:30N 50°47' E 000°03'0 0.0
2017-Aug-11 01:00N 50°47' E 000°03'0 0.0
2017-Aug-11 00:30N 50°47' E 000°03'0 0.0
2017-Aug-10 23:57N 50°47' E 000°03'0 0.0
2017-Aug-10 23:27N 50°47' E 000°03'0 0.0
2017-Aug-10 22:45N 50°47' E 000°03'0 0.0
2017-Aug-10 22:27N 50°47' E 000°03'0 0.0
2017-Aug-10 21:51N 50°47' E 000°03'0 0.0
2017-Aug-10 21:30N 50°47' E 000°03'0 0.0
2017-Aug-10 20:57N 50°47' E 000°03'0 0.0
2017-Aug-10 20:30N 50°47' E 000°03'0 0.0
2017-Aug-10 20:00N 50°47' E 000°03'0 0.0
2017-Aug-10 19:27N 50°47' E 000°03'0 0.0
2017-Aug-10 19:00N 50°47' E 000°03'0 0.0
2017-Aug-10 18:30N 50°47' E 000°03'0 0.0
2017-Aug-10 18:00N 50°47' E 000°03'0 0.0
2017-Aug-10 17:30N 50°47' E 000°03'0 0.0
2017-Aug-10 16:57N 50°47' E 000°03'0 0.0
2017-Aug-10 16:30N 50°47' E 000°03'0 0.0
2017-Aug-10 16:00N 50°47' E 000°03'0 0.0
2017-Aug-10 15:30N 50°47' E 000°03'0 0.0
2017-Aug-10 14:57N 50°47' E 000°03'0 0.0
2017-Aug-10 14:30N 50°47' E 000°03'0 0.0
2017-Aug-10 14:00N 50°47' E 000°03'0 0.0
2017-Aug-10 13:30N 50°47' E 000°03'0 0.0
2017-Aug-10 13:00N 50°47' E 000°03'0 0.0
2017-Aug-10 12:27N 50°47' E 000°03'0 0.0
2017-Aug-10 12:00N 50°47' E 000°03'0 0.0
2017-Aug-10 11:27N 50°47' E 000°03'0 0.0
2017-Aug-10 11:00N 50°47' E 000°03'0 0.0
2017-Aug-10 10:30N 50°47' E 000°03'0 0.0
2017-Aug-10 09:57N 50°47' E 000°03'0 0.0
2017-Aug-10 09:27N 50°47' E 000°03'0 0.0
2017-Aug-10 09:00N 50°47' E 000°03'0 0.0
2017-Aug-10 08:30N 50°47' E 000°03'0 0.0
2017-Aug-10 08:00N 50°47' E 000°03'0 0.0
2017-Aug-10 07:27N 50°47' E 000°03'0 0.0
2017-Aug-10 06:54N 50°47' E 000°03'0 0.0
2017-Aug-10 06:24N 50°47' E 000°03'0 0.0
2017-Aug-10 05:57N 50°47' E 000°03'0 0.0
2017-Aug-10 05:30N 50°47' E 000°03'0 0.0
2017-Aug-10 05:00N 50°47' E 000°03'0 0.0
2017-Aug-10 04:30N 50°47' E 000°03'0 0.0
2017-Aug-10 03:54N 50°47' E 000°03'0 0.0
2017-Aug-10 03:27N 50°47' E 000°03'0 0.0
2017-Aug-10 02:57N 50°47' E 000°03'0 0.0
2017-Aug-10 02:30N 50°47' E 000°03'0 0.0
2017-Aug-10 02:00N 50°47' E 000°03'0 0.0
2017-Aug-10 01:27N 50°47' E 000°03'0 0.0
2017-Aug-10 00:57N 50°47' E 000°03'0 0.0
2017-Aug-10 00:30N 50°47' E 000°03'0 0.0
2017-Aug-10 00:00N 50°47' E 000°03'0 0.0
2017-Aug-09 23:30N 50°47' E 000°03'0 0.0
2017-Aug-09 23:00N 50°47' E 000°03'0 0.0
2017-Aug-09 22:30N 50°47' E 000°03'0 0.0
2017-Aug-09 22:00N 50°47' E 000°03'0 0.0
2017-Aug-09 21:30N 50°47' E 000°03'0 0.0
2017-Aug-09 21:00N 50°47' E 000°03'0 0.0
2017-Aug-09 20:27N 50°47' E 000°03'0 0.0
2017-Aug-09 19:57N 50°47' E 000°03'0 0.0
2017-Aug-09 19:27N 50°47' E 000°03'0 0.0
2017-Aug-09 19:00N 50°47' E 000°03'0 0.0
2017-Aug-09 18:30N 50°47' E 000°03'0 0.0
2017-Aug-09 17:57N 50°47' E 000°03'0 0.0
2017-Aug-09 17:30N 50°47' E 000°03'0 0.0
2017-Aug-09 17:00N 50°47' E 000°03'0 0.0
2017-Aug-09 16:30N 50°47' E 000°03'0 0.0
2017-Aug-09 15:45N 50°47' E 000°03'0 0.0
2017-Aug-09 15:30N 50°47' E 000°03'0 0.0
2017-Aug-09 14:57N 50°47' E 000°03'0 0.0
2017-Aug-09 14:24N 50°47' E 000°03'0 0.0
2017-Aug-09 13:54N 50°47' E 000°03'0 0.0
2017-Aug-09 13:24N 50°47' E 000°03'0 0.0
2017-Aug-09 13:00N 50°47' E 000°03'0 0.0
2017-Aug-09 12:30N 50°47' E 000°03'0 0.0
2017-Aug-09 11:54N 50°47' E 000°03'0 0.0
2017-Aug-09 11:30N 50°47' E 000°03'0 0.0
2017-Aug-09 10:54N 50°47' E 000°03'0 0.0
2017-Aug-09 10:30N 50°47' E 000°03'0 0.0
2017-Aug-09 09:57N 50°47' E 000°03'0 0.0
2017-Aug-09 09:30N 50°47' E 000°03'0 0.0
2017-Aug-09 08:57N 50°47' E 000°03'0 0.0
2017-Aug-09 08:30N 50°47' E 000°03'0 0.0
2017-Aug-09 07:57N 50°47' E 000°03'0 0.0
2017-Aug-09 07:30N 50°47' E 000°03'0 0.0
2017-Aug-09 06:57N 50°47' E 000°03'0 0.0
2017-Aug-09 06:27N 50°47' E 000°03'0 0.0
2017-Aug-09 06:00N 50°47' E 000°03'0 0.0
2017-Aug-09 05:30N 50°47' E 000°03'0 0.0
2017-Aug-09 04:54N 50°47' E 000°03'0 0.0
2017-Aug-09 04:30N 50°47' E 000°03'0 0.0
2017-Aug-09 03:57N 50°47' E 000°03'0 0.0
2017-Aug-09 03:30N 50°47' E 000°03'0 0.0
2017-Aug-09 03:00N 50°47' E 000°03'0 0.0
2017-Aug-09 02:30N 50°47' E 000°03'0 0.0
2017-Aug-09 02:00N 50°47' E 000°03'0 0.0
2017-Aug-09 01:30N 50°47' E 000°03'0 0.0
2017-Aug-09 01:00N 50°47' E 000°03'0 0.0
2017-Aug-09 00:30N 50°47' E 000°03'0 0.0
2017-Aug-09 00:00N 50°47' E 000°03'0 0.0
2017-Aug-08 23:30N 50°47' E 000°03'0 0.0
2017-Aug-08 23:00N 50°47' E 000°03'0 0.0
2017-Aug-08 22:27N 50°47' E 000°03'0 0.0
2017-Aug-08 21:57N 50°47' E 000°03'0 0.0
2017-Aug-08 21:27N 50°47' E 000°03'0 0.0
2017-Aug-08 20:57N 50°47' E 000°03'0 0.0
2017-Aug-08 20:30N 50°47' E 000°03'0 0.0
2017-Aug-08 20:00N 50°47' E 000°03'0 0.0
2017-Aug-08 19:30N 50°47' E 000°03'0 0.0
2017-Aug-08 19:00N 50°47' E 000°03'0 0.0
2017-Aug-08 18:30N 50°47' E 000°03'0 0.0
2017-Aug-08 18:00N 50°47' E 000°03'0 0.0
2017-Aug-08 17:30N 50°47' E 000°03'0 0.0
2017-Aug-08 17:00N 50°47' E 000°03'0 0.0
2017-Aug-08 16:21N 50°47' E 000°03'0 0.0
2017-Aug-08 16:00N 50°47' E 000°03'0 0.0
2017-Aug-08 15:24N 50°47' E 000°03'0 0.0
2017-Aug-08 15:00N 50°47' E 000°03'0 0.0
2017-Aug-08 14:21N 50°47' E 000°03'0 0.0
2017-Aug-08 13:57N 50°47' E 000°03'0 0.0
2017-Aug-08 13:24N 50°47' E 000°03'0 0.0
2017-Aug-08 13:00N 50°47' E 000°03'0 0.1
2017-Aug-08 12:30N 50°47' E 000°03'2 3.9
2017-Aug-08 12:01N 50°45' E 000°02'3 6.1
2017-Aug-08 11:30N 50°42' E 000°03'4 7.7
2017-Aug-08 11:01N 50°39' E 000°04'3 6.4
2017-Aug-08 10:30N 50°36' E 000°00'4 7.8
2017-Aug-08 10:01N 50°34' W 000°05'3 6.2
2017-Aug-08 09:30N 50°33' W 000°01'4 7.8
2017-Aug-08 09:01N 50°34' E 000°05'4 7.4
2017-Aug-08 08:30N 50°34' E 000°11'4 7.5
2017-Aug-08 08:00N 50°35' E 000°17'4 7.4
2017-Aug-08 07:31N 50°36' E 000°22'4 7.4
2017-Aug-08 07:01N 50°37' E 000°28'4 7.3
2017-Aug-08 06:31N 50°38' E 000°33'4 7.8
2017-Aug-08 06:01N 50°40' E 000°38'3 5.6
2017-Aug-08 05:31N 50°42' E 000°42'4 8.5
2017-Aug-08 05:00N 50°45' E 000°48'510.1
2017-Aug-08 04:30N 50°48' E 000°54'510.2
2017-Aug-08 04:00N 50°51' E 001°00'510.2
2017-Aug-08 03:30N 50°54' E 001°07'5 9.6
2017-Aug-08 02:57N 50°57' E 001°13'4 8.9
2017-Aug-08 02:29N 50°60' E 001°19'4 8.3
2017-Aug-08 02:00N 51°02' E 001°23'4 8.1
2017-Aug-08 01:31N 51°05' E 001°28'4 8.2
2017-Aug-08 01:01N 51°08' E 001°33'4 7.9
2017-Aug-08 00:30N 51°10' E 001°38'4 8.0
2017-Aug-08 00:01N 51°13' E 001°43'4 7.8
2017-Aug-07 23:31N 51°16' E 001°47'4 8.0
2017-Aug-07 23:00N 51°19' E 001°51'4 7.8
2017-Aug-07 22:30N 51°22' E 001°55'4 8.1
2017-Aug-07 22:01N 51°25' E 001°58'5 9.0
2017-Aug-07 21:31N 51°29' E 002°03'5 9.5
2017-Aug-07 21:01N 51°32' E 002°08'510.0
2017-Aug-07 20:30N 51°36' E 002°13'510.2
2017-Aug-07 20:00N 51°40' E 002°19'510.3
2017-Aug-07 19:30N 51°44' E 002°25'510.0
2017-Aug-07 19:00N 51°47' E 002°30'5 9.5
2017-Aug-07 18:30N 51°51' E 002°35'5 9.6
2017-Aug-07 18:00N 51°54' E 002°40'5 9.1
2017-Aug-07 17:30N 51°58' E 002°45'13 8.8
2017-Aug-07 16:00N 52°02' E 003°06'1221.2
2017-Aug-07 15:26N 52°03' E 003°25'0 0.0
2017-Aug-07 15:00N 52°03' E 003°25'5 9.6
2017-Aug-07 14:30N 52°03' E 003°33'611.5
2017-Aug-07 14:00N 52°03' E 003°43'2 4.4
2017-Aug-07 13:30N 52°03' E 003°46'5 9.6
2017-Aug-07 13:00N 52°03' E 003°54'4 8.5
2017-Aug-07 12:30N 52°01' E 004°00'612.2
2017-Aug-07 12:01N 51°58' E 004°09'612.3
2017-Aug-07 11:31N 51°54' E 004°16'510.5
2017-Aug-07 11:01N 51°54' E 004°25'2 3.4
2017-Aug-07 10:30N 51°54' E 004°28'0 0.0
2017-Aug-07 10:00N 51°54' E 004°28'0 0.0
2017-Aug-07 09:30N 51°54' E 004°28'0 0.0
2017-Aug-07 09:00N 51°54' E 004°28'0 0.0
2017-Aug-07 08:30N 51°54' E 004°28'0 0.0
2017-Aug-07 08:00N 51°54' E 004°28'0 0.0
2017-Aug-07 07:30N 51°54' E 004°28'0 0.0
2017-Aug-07 07:00N 51°54' E 004°28'0 0.0
2017-Aug-07 06:30N 51°54' E 004°28'0 0.0
2017-Aug-07 06:00N 51°54' E 004°28'0 0.0
2017-Aug-07 05:30N 51°54' E 004°28'0 0.0
2017-Aug-07 05:00N 51°54' E 004°28'0 0.0
2017-Aug-07 04:30N 51°54' E 004°28'0 0.0
2017-Aug-07 04:00N 51°54' E 004°28'0 0.0
2017-Aug-07 03:30N 51°54' E 004°28'0 0.0
2017-Aug-07 03:00N 51°54' E 004°28'0 0.0
2017-Aug-07 02:30N 51°54' E 004°28'0 0.0
2017-Aug-07 02:00N 51°54' E 004°28'0 0.0
2017-Aug-07 01:30N 51°54' E 004°28'0 0.0
2017-Aug-07 01:00N 51°54' E 004°28'0 0.0
2017-Aug-07 00:30N 51°54' E 004°28'0 0.0
2017-Aug-07 00:00N 51°54' E 004°28'0 0.0
2017-Aug-06 23:30N 51°54' E 004°28'0 0.0
2017-Aug-06 23:00N 51°54' E 004°28'0 0.0
2017-Aug-06 22:30N 51°54' E 004°28'0 0.0
2017-Aug-06 22:00N 51°54' E 004°28'0 0.0
2017-Aug-06 21:30N 51°54' E 004°28'  
Track history (hours):
 
Tides and Currents Weather Stations Pressure Air Temp Water Temp Dewpoint Dewpoint Depression Visibility Wind Speed Wind Dir Waves Ship Positions

Wilson Cadiz

Last reported at 2017-Aug-16 21:23 UTC. Time now 2017-Aug-18 16:08 UTC.
Position N 54°40' W 001°07'.

Length 100 m; draft 3.5 m.

Type: Ship. MMSI: 314216000.

Date/timePositionNaut miles runAvg speedWind from/ knotsBaromVisibWave heightAir tempDewpointWater temp
2017-Aug-16 21:23N 54°40' W 001°07'3 9.1
2017-Aug-16 21:00N 54°42' W 001°02'1 1.5
2017-Aug-16 20:22N 54°42' W 001°00'0 0.0
2017-Aug-16 19:52N 54°42' W 001°00'0 0.0
2017-Aug-16 19:25N 54°42' W 001°00'0 0.0
2017-Aug-16 18:55N 54°42' W 001°00'0 0.0
2017-Aug-16 16:43N 54°42' W 001°00'0 0.0
2017-Aug-16 16:25N 54°42' W 001°00'0 0.1
2017-Aug-16 15:55N 54°42' W 001°00'0 0.0
2017-Aug-16 15:25N 54°42' W 001°00'0 0.0
2017-Aug-16 14:58N 54°42' W 001°00'0 0.0
2017-Aug-16 14:28N 54°42' W 001°00'0 0.0
2017-Aug-16 13:58N 54°42' W 001°00'0 0.0
2017-Aug-16 13:28N 54°42' W 001°00'0 0.0
2017-Aug-16 12:58N 54°42' W 001°00'0 0.1
2017-Aug-16 12:28N 54°42' W 001°00'0 0.0
2017-Aug-16 11:58N 54°42' W 001°00'0 0.0
2017-Aug-16 11:04N 54°42' W 001°00'0 0.0
2017-Aug-16 10:49N 54°42' W 001°00'0 0.0
2017-Aug-16 10:28N 54°42' W 001°00'0 0.0
2017-Aug-16 09:49N 54°42' W 001°00'0 0.0
2017-Aug-16 09:19N 54°42' W 001°00'0 0.0
2017-Aug-16 08:49N 54°42' W 001°00'0 0.0
2017-Aug-16 08:22N 54°42' W 001°00'0 0.0
2017-Aug-16 07:52N 54°42' W 001°00'0 0.1
2017-Aug-16 07:22N 54°42' W 001°00'0 0.1
2017-Aug-16 06:37N 54°42' W 001°00'0 0.0
2017-Aug-16 06:22N 54°42' W 001°00'0 0.1
2017-Aug-16 05:52N 54°42' W 001°00'0 0.0
2017-Aug-16 05:25N 54°42' W 001°00'0 0.0
2017-Aug-16 04:55N 54°42' W 001°00'0 0.0
2017-Aug-16 02:43N 54°42' W 001°00'0 0.0
2017-Aug-16 02:28N 54°42' W 001°00'0 0.8
2017-Aug-16 02:00N 54°42' W 000°60'1912.0
2017-Aug-16 00:23N 54°33' W 000°30'411.6
2017-Aug-16 00:00N 54°31' W 000°23'611.1
2017-Aug-15 23:30N 54°27' W 000°15'611.2
2017-Aug-15 23:01N 54°23' W 000°10'511.0
2017-Aug-15 22:31N 54°18' W 000°04'611.0
2017-Aug-15 22:01N 54°14' E 000°01'510.7
2017-Aug-15 21:30N 54°10' E 000°07'510.8
2017-Aug-15 21:01N 54°06' E 000°13'511.0
2017-Aug-15 20:31N 54°01' E 000°18'611.2
2017-Aug-15 19:58N 53°56' E 000°25'5012.9
2017-Aug-15 16:05N 53°17' E 001°16'112.9
2017-Aug-15 16:00N 53°16' E 001°17'612.3
2017-Aug-15 15:30N 53°11' E 001°22'611.8
2017-Aug-15 15:00N 53°07' E 001°30'611.6
2017-Aug-15 14:30N 53°03' E 001°37'611.2
2017-Aug-15 14:00N 52°60' E 001°45'510.7
2017-Aug-15 13:30N 52°56' E 001°51'510.5
2017-Aug-15 13:00N 52°53' E 001°59'510.2
2017-Aug-15 12:30N 52°50' E 002°04'510.4
2017-Aug-15 12:00N 52°45' E 002°09'6211.8
2017-Aug-15 06:45N 51°54' E 003°07'412.7
2017-Aug-15 06:25N 51°50' E 003°09'512.3
2017-Aug-15 06:00N 51°46' E 003°14'611.8
2017-Aug-15 05:30N 51°41' E 003°19'612.4
2017-Aug-15 05:00N 51°36' E 003°24'611.7
2017-Aug-15 04:30N 51°30' E 003°28'510.4
2017-Aug-15 04:00N 51°27' E 003°34'4 8.3
2017-Aug-15 03:30N 51°25' E 003°40'611.1
2017-Aug-15 03:00N 51°22' E 003°47'2 4.8
2017-Aug-15 02:30N 51°20' E 003°49'0 0.9
2017-Aug-15 02:00N 51°19' E 003°49'1 1.6
2017-Aug-15 01:30N 51°18' E 003°50'4 7.0
2017-Aug-15 01:01N 51°15' E 003°49'4 8.3
2017-Aug-15 00:30N 51°11' E 003°48'4 9.0
2017-Aug-15 00:01N 51°07' E 003°45'1 2.8
2017-Aug-14 23:30N 51°06' E 003°44'0 0.0
2017-Aug-14 23:00N 51°06' E 003°44'0 0.0
2017-Aug-14 22:27N 51°06' E 003°44'0 0.0
2017-Aug-14 22:00N 51°06' E 003°44'0 0.0
2017-Aug-14 21:30N 51°06' E 003°44'0 0.0
2017-Aug-14 21:00N 51°06' E 003°44'0 0.0
2017-Aug-14 20:27N 51°06' E 003°44'0 0.0
2017-Aug-14 19:57N 51°06' E 003°44'0 0.0
2017-Aug-14 19:27N 51°06' E 003°44'0 0.0
2017-Aug-14 19:00N 51°06' E 003°44'0 0.0
2017-Aug-14 18:30N 51°06' E 003°44'0 0.0
2017-Aug-14 18:00N 51°06' E 003°44'0 0.0
2017-Aug-14 17:30N 51°06' E 003°44'0 0.0
2017-Aug-14 17:00N 51°06' E 003°44'0 0.0
2017-Aug-14 16:27N 51°06' E 003°44'0 0.0
2017-Aug-14 15:57N 51°06' E 003°44'0 0.0
2017-Aug-14 15:30N 51°06' E 003°44'0 0.0
2017-Aug-14 15:00N 51°06' E 003°44'0 0.0
2017-Aug-14 14:24N 51°06' E 003°44'0 0.0
2017-Aug-14 14:00N 51°06' E 003°44'0 0.0
2017-Aug-14 13:30N 51°06' E 003°44'0 0.0
2017-Aug-14 13:00N 51°06' E 003°44'0 0.0
2017-Aug-14 12:30N 51°06' E 003°44'0 0.0
2017-Aug-14 11:57N 51°06' E 003°44'0 0.0
2017-Aug-14 11:30N 51°06' E 003°44'0 0.0
2017-Aug-14 10:57N 51°06' E 003°44'0 0.0
2017-Aug-14 10:30N 51°06' E 003°44'0 0.0
2017-Aug-14 10:00N 51°06' E 003°44'0 0.0
2017-Aug-14 09:30N 51°06' E 003°44'0 0.0
2017-Aug-14 09:00N 51°06' E 003°44'0 0.0
2017-Aug-14 08:30N 51°06' E 003°44'0 0.0
2017-Aug-14 07:57N 51°06' E 003°44'0 0.0
2017-Aug-14 07:28N 51°06' E 003°44'0 0.0
2017-Aug-14 06:55N 51°06' E 003°44'0 0.0
2017-Aug-14 06:25N 51°06' E 003°44'0 0.0
2017-Aug-14 05:55N 51°06' E 003°44'0 0.0
2017-Aug-14 05:28N 51°06' E 003°44'0 0.0
2017-Aug-14 04:58N 51°06' E 003°44'0 0.0
2017-Aug-14 04:25N 51°06' E 003°44'0 0.0
2017-Aug-14 03:58N 51°06' E 003°44'0 0.0
2017-Aug-14 03:22N 51°06' E 003°44'0 0.0
2017-Aug-14 02:58N 51°06' E 003°44'0 0.0
2017-Aug-14 02:25N 51°06' E 003°44'0 0.0
2017-Aug-14 01:58N 51°06' E 003°44'0 0.0
2017-Aug-14 01:25N 51°06' E 003°44'0 0.0
2017-Aug-14 00:58N 51°06' E 003°44'0 0.0
2017-Aug-14 00:28N 51°06' E 003°44'0 0.0
2017-Aug-13 23:55N 51°06' E 003°44'0 0.0
2017-Aug-13 23:28N 51°06' E 003°44'0 0.0
2017-Aug-13 22:58N 51°06' E 003°44'0 0.0
2017-Aug-13 22:28N 51°06' E 003°44'0 0.0
2017-Aug-13 21:58N 51°06' E 003°44'0 0.0
2017-Aug-13 21:25N 51°06' E 003°44'0 0.0
2017-Aug-13 20:58N 51°06' E 003°44'0 0.0
2017-Aug-13 20:25N 51°06' E 003°44'0 0.0
2017-Aug-13 19:55N 51°06' E 003°44'0 0.0
2017-Aug-13 19:25N 51°06' E 003°44'0 0.0
2017-Aug-13 18:58N 51°06' E 003°44'0 0.0
2017-Aug-13 18:25N 51°06' E 003°44'0 0.0
2017-Aug-13 17:58N 51°06' E 003°44'0 0.0
2017-Aug-13 17:28N 51°06' E 003°44'0 0.0
2017-Aug-13 16:58N 51°06' E 003°44'0 0.0
2017-Aug-13 16:22N 51°06' E 003°44'0 0.0
2017-Aug-13 15:58N 51°06' E 003°44'0 0.0
2017-Aug-13 15:28N 51°06' E 003°44'0 0.0
2017-Aug-13 14:55N 51°06' E 003°44'0 0.0
2017-Aug-13 14:28N 51°06' E 003°44'0 0.0
2017-Aug-13 13:58N 51°06' E 003°44'0 0.0
2017-Aug-13 13:28N 51°06' E 003°44'0 0.0
2017-Aug-13 12:55N 51°06' E 003°44'0 0.0
2017-Aug-13 12:28N 51°06' E 003°44'0 0.0
2017-Aug-13 11:55N 51°06' E 003°44'0 0.0
2017-Aug-13 11:28N 51°06' E 003°44'0 0.0
2017-Aug-13 10:55N 51°06' E 003°44'0 0.0
2017-Aug-13 10:28N 51°06' E 003°44'0 0.0
2017-Aug-13 09:55N 51°06' E 003°44'0 0.0
2017-Aug-13 09:28N 51°06' E 003°44'0 0.0
2017-Aug-13 08:55N 51°06' E 003°44'0 0.0
2017-Aug-13 08:28N 51°06' E 003°44'0 0.0
2017-Aug-13 07:58N 51°06' E 003°44'0 0.0
2017-Aug-13 07:25N 51°06' E 003°44'0 0.0
2017-Aug-13 06:58N 51°06' E 003°44'0 0.0
2017-Aug-13 06:25N 51°06' E 003°44'0 0.0
2017-Aug-13 05:58N 51°06' E 003°44'0 0.0
2017-Aug-13 05:25N 51°06' E 003°44'0 0.0
2017-Aug-13 04:58N 51°06' E 003°44'0 0.0
2017-Aug-13 04:25N 51°06' E 003°44'0 0.0
2017-Aug-13 03:58N 51°06' E 003°44'0 0.0
2017-Aug-13 03:25N 51°06' E 003°44'0 0.0
2017-Aug-13 02:58N 51°06' E 003°44'0 0.0
2017-Aug-13 02:25N 51°06' E 003°44'0 0.0
2017-Aug-13 01:58N 51°06' E 003°44'0 0.0
2017-Aug-13 01:28N 51°06' E 003°44'0 0.0
2017-Aug-13 00:58N 51°06' E 003°44'0 0.0
2017-Aug-13 00:25N 51°06' E 003°44'0 0.0
2017-Aug-12 23:58N 51°06' E 003°44'0 0.0
2017-Aug-12 23:28N 51°06' E 003°44'0 0.0
2017-Aug-12 22:55N 51°06' E 003°44'0 0.0
2017-Aug-12 22:28N 51°06' E 003°44'0 0.0
2017-Aug-12 21:55N 51°06' E 003°44'0 0.0
2017-Aug-12 21:28N 51°06' E 003°44'0 0.0
2017-Aug-12 20:58N 51°06' E 003°44'0 0.0
2017-Aug-12 20:25N 51°06' E 003°44'0 0.0
2017-Aug-12 19:58N 51°06' E 003°44'0 0.0
2017-Aug-12 19:19N 51°06' E 003°44'0 0.0
2017-Aug-12 18:55N 51°06' E 003°44'0 0.0
2017-Aug-12 18:28N 51°06' E 003°44'0 0.0
2017-Aug-12 17:55N 51°06' E 003°44'0 0.0
2017-Aug-12 17:28N 51°06' E 003°44'0 0.0
2017-Aug-12 16:58N 51°06' E 003°44'0 0.0
2017-Aug-12 16:25N 51°06' E 003°44'0 0.0
2017-Aug-12 15:58N 51°06' E 003°44'0 0.0
2017-Aug-12 15:25N 51°06' E 003°44'0 0.0
2017-Aug-12 14:58N 51°06' E 003°44'0 0.0
2017-Aug-12 14:25N 51°06' E 003°44'0 0.0
2017-Aug-12 13:58N 51°06' E 003°44'0 0.0
2017-Aug-12 13:25N 51°06' E 003°44'0 0.0
2017-Aug-12 12:58N 51°06' E 003°44'0 0.0
2017-Aug-12 12:25N 51°06' E 003°44'0 0.0
2017-Aug-12 11:55N 51°06' E 003°44'0 0.0
2017-Aug-12 11:28N 51°06' E 003°44'0 0.0
2017-Aug-12 10:55N 51°06' E 003°44'0 0.0
2017-Aug-12 10:25N 51°06' E 003°44'0 0.0
2017-Aug-12 09:55N 51°06' E 003°44'0 0.0
2017-Aug-12 09:28N 51°06' E 003°44'0 0.0
2017-Aug-12 08:58N 51°06' E 003°44'0 0.0
2017-Aug-12 08:22N 51°06' E 003°44'0 0.0
2017-Aug-12 07:58N 51°06' E 003°44'0 0.0
2017-Aug-12 07:28N 51°06' E 003°44'0 0.0
2017-Aug-12 06:58N 51°06' E 003°44'0 0.0
2017-Aug-12 06:28N 51°06' E 003°44'0 0.0
2017-Aug-12 05:58N 51°06' E 003°44'0 0.0
2017-Aug-12 05:28N 51°06' E 003°44'0 0.0
2017-Aug-12 04:55N 51°06' E 003°44'0 0.0
2017-Aug-12 04:28N 51°06' E 003°44'0 0.0
2017-Aug-12 03:58N 51°06' E 003°44'0 0.0
2017-Aug-12 03:25N 51°06' E 003°44'0 0.0
2017-Aug-12 02:58N 51°06' E 003°44'0 0.0
2017-Aug-12 02:22N 51°06' E 003°44'0 0.0
2017-Aug-12 01:58N 51°06' E 003°44'0 0.0
2017-Aug-12 01:28N 51°06' E 003°44'0 0.0
2017-Aug-12 01:00N 51°06' E 003°44'1 2.9
2017-Aug-12 00:31N 51°07' E 003°45'4 7.8
2017-Aug-12 00:00N 51°10' E 003°48'4 7.8
2017-Aug-11 23:31N 51°14' E 003°49'4 7.1
2017-Aug-11 23:00N 51°18' E 003°50'2 4.3
2017-Aug-11 22:30N 51°20' E 003°49'0 0.5
2017-Aug-11 22:00N 51°20' E 003°49'3 5.5
2017-Aug-11 21:30N 51°22' E 003°45'4 8.9
2017-Aug-11 21:01N 51°25' E 003°40'4 8.9
2017-Aug-11 20:30N 51°26' E 003°33'4 7.9
2017-Aug-11 20:00N 51°25' E 003°27'5 9.0
2017-Aug-11 19:30N 51°24' E 003°20'5 9.4
2017-Aug-11 19:00N 51°23' E 003°13'510.5
2017-Aug-11 18:30N 51°22' E 003°04'611.2
2017-Aug-11 18:00N 51°22' E 002°55'611.5
2017-Aug-11 17:30N 51°22' E 002°46'3 6.9
2017-Aug-11 17:00N 51°22' E 002°41'4 7.0
2017-Aug-11 16:30N 51°22' E 002°35'4 7.9
2017-Aug-11 16:00N 51°22' E 002°29'4 8.4
2017-Aug-11 15:30N 51°20' E 002°23'4 8.7
2017-Aug-11 15:00N 51°17' E 002°17'4 8.0
2017-Aug-11 14:30N 51°15' E 002°11'10 9.6
2017-Aug-11 13:30N 51°11' E 001°58'612.8
2017-Aug-11 13:00N 51°07' E 001°49'612.7
2017-Aug-11 12:30N 51°03' E 001°42'612.2
2017-Aug-11 12:00N 50°59' E 001°35'611.3
2017-Aug-11 11:30N 50°54' E 001°29'510.3
2017-Aug-11 11:00N 50°50' E 001°26'510.1
2017-Aug-11 10:29N 50°45' E 001°23'52 9.6
2017-Aug-11 05:06N 50°23' E 000°08'3 9.3
2017-Aug-11 04:44N 50°22' E 000°03'2 9.3
2017-Aug-11 04:30N 50°22' E 000°00'510.1
2017-Aug-11 04:00N 50°27' W 000°03'510.7
2017-Aug-11 03:30N 50°32' W 000°04'510.6
2017-Aug-11 03:00N 50°37' W 000°04'611.4
2017-Aug-11 02:30N 50°42' E 000°00'5 9.9
2017-Aug-11 02:00N 50°47' E 000°03'0 0.7
2017-Aug-11 01:30N 50°47' E 000°03'0 0.0
2017-Aug-11 01:00N 50°47' E 000°03'0 0.0
2017-Aug-11 00:30N 50°47' E 000°03'0 0.0
2017-Aug-10 23:57N 50°47' E 000°03'0 0.0
2017-Aug-10 23:27N 50°47' E 000°03'0 0.0
2017-Aug-10 22:45N 50°47' E 000°03'0 0.0
2017-Aug-10 22:27N 50°47' E 000°03'0 0.0
2017-Aug-10 21:51N 50°47' E 000°03'0 0.0
2017-Aug-10 21:30N 50°47' E 000°03'0 0.0
2017-Aug-10 20:57N 50°47' E 000°03'0 0.0
2017-Aug-10 20:30N 50°47' E 000°03'0 0.0
2017-Aug-10 20:00N 50°47' E 000°03'0 0.0
2017-Aug-10 19:27N 50°47' E 000°03'0 0.0
2017-Aug-10 19:00N 50°47' E 000°03'0 0.0
2017-Aug-10 18:30N 50°47' E 000°03'0 0.0
2017-Aug-10 18:00N 50°47' E 000°03'0 0.0
2017-Aug-10 17:30N 50°47' E 000°03'0 0.0
2017-Aug-10 16:57N 50°47' E 000°03'0 0.0
2017-Aug-10 16:30N 50°47' E 000°03'0 0.0
2017-Aug-10 16:00N 50°47' E 000°03'0 0.0
2017-Aug-10 15:30N 50°47' E 000°03'0 0.0
2017-Aug-10 14:57N 50°47' E 000°03'0 0.0
2017-Aug-10 14:30N 50°47' E 000°03'0 0.0
2017-Aug-10 14:00N 50°47' E 000°03'0 0.0
2017-Aug-10 13:30N 50°47' E 000°03'0 0.0
2017-Aug-10 13:00N 50°47' E 000°03'0 0.0
2017-Aug-10 12:27N 50°47' E 000°03'0 0.0
2017-Aug-10 12:00N 50°47' E 000°03'0 0.0
2017-Aug-10 11:27N 50°47' E 000°03'0 0.0
2017-Aug-10 11:00N 50°47' E 000°03'0 0.0
2017-Aug-10 10:30N 50°47' E 000°03'0 0.0
2017-Aug-10 09:57N 50°47' E 000°03'0 0.0
2017-Aug-10 09:27N 50°47' E 000°03'0 0.0
2017-Aug-10 09:00N 50°47' E 000°03'0 0.0
2017-Aug-10 08:30N 50°47' E 000°03'0 0.0
2017-Aug-10 08:00N 50°47' E 000°03'0 0.0
2017-Aug-10 07:27N 50°47' E 000°03'0 0.0
2017-Aug-10 06:54N 50°47' E 000°03'0 0.0
2017-Aug-10 06:24N 50°47' E 000°03'0 0.0
2017-Aug-10 05:57N 50°47' E 000°03'0 0.0
2017-Aug-10 05:30N 50°47' E 000°03'0 0.0
2017-Aug-10 05:00N 50°47' E 000°03'0 0.0
2017-Aug-10 04:30N 50°47' E 000°03'0 0.0
2017-Aug-10 03:54N 50°47' E 000°03'0 0.0
2017-Aug-10 03:27N 50°47' E 000°03'0 0.0
2017-Aug-10 02:57N 50°47' E 000°03'0 0.0
2017-Aug-10 02:30N 50°47' E 000°03'0 0.0
2017-Aug-10 02:00N 50°47' E 000°03'0 0.0
2017-Aug-10 01:27N 50°47' E 000°03'0 0.0
2017-Aug-10 00:57N 50°47' E 000°03'0 0.0
2017-Aug-10 00:30N 50°47' E 000°03'0 0.0
2017-Aug-10 00:00N 50°47' E 000°03'0 0.0
2017-Aug-09 23:30N 50°47' E 000°03'0 0.0
2017-Aug-09 23:00N 50°47' E 000°03'0 0.0
2017-Aug-09 22:30N 50°47' E 000°03'0 0.0
2017-Aug-09 22:00N 50°47' E 000°03'0 0.0
2017-Aug-09 21:30N 50°47' E 000°03'0 0.0
2017-Aug-09 21:00N 50°47' E 000°03'0 0.0
2017-Aug-09 20:27N 50°47' E 000°03'0 0.0
2017-Aug-09 19:57N 50°47' E 000°03'0 0.0
2017-Aug-09 19:27N 50°47' E 000°03'0 0.0
2017-Aug-09 19:00N 50°47' E 000°03'0 0.0
2017-Aug-09 18:30N 50°47' E 000°03'0 0.0
2017-Aug-09 17:57N 50°47' E 000°03'0 0.0
2017-Aug-09 17:30N 50°47' E 000°03'0 0.0
2017-Aug-09 17:00N 50°47' E 000°03'0 0.0
2017-Aug-09 16:30N 50°47' E 000°03'0 0.0
2017-Aug-09 15:45N 50°47' E 000°03'0 0.0
2017-Aug-09 15:30N 50°47' E 000°03'0 0.0
2017-Aug-09 14:57N 50°47' E 000°03'0 0.0
2017-Aug-09 14:24N 50°47' E 000°03'0 0.0
2017-Aug-09 13:54N 50°47' E 000°03'0 0.0
2017-Aug-09 13:24N 50°47' E 000°03'0 0.0
2017-Aug-09 13:00N 50°47' E 000°03'0 0.0
2017-Aug-09 12:30N 50°47' E 000°03'0 0.0
2017-Aug-09 11:54N 50°47' E 000°03'0 0.0
2017-Aug-09 11:30N 50°47' E 000°03'0 0.0
2017-Aug-09 10:54N 50°47' E 000°03'0 0.0
2017-Aug-09 10:30N 50°47' E 000°03'0 0.0
2017-Aug-09 09:57N 50°47' E 000°03'0 0.0
2017-Aug-09 09:30N 50°47' E 000°03'0 0.0
2017-Aug-09 08:57N 50°47' E 000°03'0 0.0
2017-Aug-09 08:30N 50°47' E 000°03'0 0.0
2017-Aug-09 07:57N 50°47' E 000°03'0 0.0
2017-Aug-09 07:30N 50°47' E 000°03'0 0.0
2017-Aug-09 06:57N 50°47' E 000°03'0 0.0
2017-Aug-09 06:27N 50°47' E 000°03'0 0.0
2017-Aug-09 06:00N 50°47' E 000°03'0 0.0
2017-Aug-09 05:30N 50°47' E 000°03'0 0.0
2017-Aug-09 04:54N 50°47' E 000°03'0 0.0
2017-Aug-09 04:30N 50°47' E 000°03'0 0.0
2017-Aug-09 03:57N 50°47' E 000°03'0 0.0
2017-Aug-09 03:30N 50°47' E 000°03'0 0.0
2017-Aug-09 03:00N 50°47' E 000°03'0 0.0
2017-Aug-09 02:30N 50°47' E 000°03'0 0.0
2017-Aug-09 02:00N 50°47' E 000°03'0 0.0
2017-Aug-09 01:30N 50°47' E 000°03'0 0.0
2017-Aug-09 01:00N 50°47' E 000°03'0 0.0
2017-Aug-09 00:30N 50°47' E 000°03'0 0.0
2017-Aug-09 00:00N 50°47' E 000°03'0 0.0
2017-Aug-08 23:30N 50°47' E 000°03'0 0.0
2017-Aug-08 23:00N 50°47' E 000°03'0 0.0
2017-Aug-08 22:27N 50°47' E 000°03'0 0.0
2017-Aug-08 21:57N 50°47' E 000°03'0 0.0
2017-Aug-08 21:27N 50°47' E 000°03'0 0.0
2017-Aug-08 20:57N 50°47' E 000°03'0 0.0
2017-Aug-08 20:30N 50°47' E 000°03'0 0.0
2017-Aug-08 20:00N 50°47' E 000°03'0 0.0
2017-Aug-08 19:30N 50°47' E 000°03'0 0.0
2017-Aug-08 19:00N 50°47' E 000°03'0 0.0
2017-Aug-08 18:30N 50°47' E 000°03'0 0.0
2017-Aug-08 18:00N 50°47' E 000°03'0 0.0
2017-Aug-08 17:30N 50°47' E 000°03'0 0.0
2017-Aug-08 17:00N 50°47' E 000°03'0 0.0
2017-Aug-08 16:21N 50°47' E 000°03'0 0.0
2017-Aug-08 16:00N 50°47' E 000°03'0 0.0
2017-Aug-08 15:24N 50°47' E 000°03'0 0.0
2017-Aug-08 15:00N 50°47' E 000°03'0 0.0
2017-Aug-08 14:21N 50°47' E 000°03'0 0.0
2017-Aug-08 13:57N 50°47' E 000°03'0 0.0
2017-Aug-08 13:24N 50°47' E 000°03'0 0.0
2017-Aug-08 13:00N 50°47' E 000°03'0 0.1
2017-Aug-08 12:30N 50°47' E 000°03'2 3.9
2017-Aug-08 12:01N 50°45' E 000°02'3 6.1
2017-Aug-08 11:30N 50°42' E 000°03'4 7.7
2017-Aug-08 11:01N 50°39' E 000°04'3 6.4
2017-Aug-08 10:30N 50°36' E 000°00'4 7.8
2017-Aug-08 10:01N 50°34' W 000°05'3 6.2
2017-Aug-08 09:30N 50°33' W 000°01'4 7.8
2017-Aug-08 09:01N 50°34' E 000°05'4 7.4
2017-Aug-08 08:30N 50°34' E 000°11'4 7.5
2017-Aug-08 08:00N 50°35' E 000°17'4 7.4
2017-Aug-08 07:31N 50°36' E 000°22'4 7.4
2017-Aug-08 07:01N 50°37' E 000°28'4 7.3
2017-Aug-08 06:31N 50°38' E 000°33'4 7.8
2017-Aug-08 06:01N 50°40' E 000°38'3 5.6
2017-Aug-08 05:31N 50°42' E 000°42'4 8.5
2017-Aug-08 05:00N 50°45' E 000°48'510.1
2017-Aug-08 04:30N 50°48' E 000°54'510.2
2017-Aug-08 04:00N 50°51' E 001°00'510.2
2017-Aug-08 03:30N 50°54' E 001°07'5 9.6
2017-Aug-08 02:57N 50°57' E 001°13'4 8.9
2017-Aug-08 02:29N 50°60' E 001°19'4 8.3
2017-Aug-08 02:00N 51°02' E 001°23'4 8.1
2017-Aug-08 01:31N 51°05' E 001°28'4 8.2
2017-Aug-08 01:01N 51°08' E 001°33'4 7.9
2017-Aug-08 00:30N 51°10' E 001°38'4 8.0
2017-Aug-08 00:01N 51°13' E 001°43'4 7.8
2017-Aug-07 23:31N 51°16' E 001°47'4 8.0
2017-Aug-07 23:00N 51°19' E 001°51'4 7.8
2017-Aug-07 22:30N 51°22' E 001°55'4 8.1
2017-Aug-07 22:01N 51°25' E 001°58'5 9.0
2017-Aug-07 21:31N 51°29' E 002°03'5 9.5
2017-Aug-07 21:01N 51°32' E 002°08'510.0
2017-Aug-07 20:30N 51°36' E 002°13'510.2
2017-Aug-07 20:00N 51°40' E 002°19'510.3
2017-Aug-07 19:30N 51°44' E 002°25'510.0
2017-Aug-07 19:00N 51°47' E 002°30'5 9.5
2017-Aug-07 18:30N 51°51' E 002°35'5 9.6
2017-Aug-07 18:00N 51°54' E 002°40'5 9.1
2017-Aug-07 17:30N 51°58' E 002°45'13 8.8
2017-Aug-07 16:00N 52°02' E 003°06'1221.2
2017-Aug-07 15:26N 52°03' E 003°25'0 0.0
2017-Aug-07 15:00N 52°03' E 003°25'5 9.6
2017-Aug-07 14:30N 52°03' E 003°33'611.5
2017-Aug-07 14:00N 52°03' E 003°43'2 4.4
2017-Aug-07 13:30N 52°03' E 003°46'5 9.6
2017-Aug-07 13:00N 52°03' E 003°54'4 8.5
2017-Aug-07 12:30N 52°01' E 004°00'612.2
2017-Aug-07 12:01N 51°58' E 004°09'612.3
2017-Aug-07 11:31N 51°54' E 004°16'510.5
2017-Aug-07 11:01N 51°54' E 004°25'2 3.4
2017-Aug-07 10:30N 51°54' E 004°28'0 0.0
2017-Aug-07 10:00N 51°54' E 004°28'0 0.0
2017-Aug-07 09:30N 51°54' E 004°28'0 0.0
2017-Aug-07 09:00N 51°54' E 004°28'0 0.0
2017-Aug-07 08:30N 51°54' E 004°28'0 0.0
2017-Aug-07 08:00N 51°54' E 004°28'0 0.0
2017-Aug-07 07:30N 51°54' E 004°28'0 0.0
2017-Aug-07 07:00N 51°54' E 004°28'0 0.0
2017-Aug-07 06:30N 51°54' E 004°28'0 0.0
2017-Aug-07 06:00N 51°54' E 004°28'0 0.0
2017-Aug-07 05:30N 51°54' E 004°28'0 0.0
2017-Aug-07 05:00N 51°54' E 004°28'0 0.0
2017-Aug-07 04:30N 51°54' E 004°28'0 0.0
2017-Aug-07 04:00N 51°54' E 004°28'0 0.0
2017-Aug-07 03:30N 51°54' E 004°28'0 0.0
2017-Aug-07 03:00N 51°54' E 004°28'0 0.0
2017-Aug-07 02:30N 51°54' E 004°28'0 0.0
2017-Aug-07 02:00N 51°54' E 004°28'0 0.0
2017-Aug-07 01:30N 51°54' E 004°28'0 0.0
2017-Aug-07 01:00N 51°54' E 004°28'0 0.0
2017-Aug-07 00:30N 51°54' E 004°28'0 0.0
2017-Aug-07 00:00N 51°54' E 004°28'0 0.0
2017-Aug-06 23:30N 51°54' E 004°28'0 0.0
2017-Aug-06 23:00N 51°54' E 004°28'0 0.0
2017-Aug-06 22:30N 51°54' E 004°28'0 0.0
2017-Aug-06 22:00N 51°54' E 004°28'0 0.0
2017-Aug-06 21:30N 51°54' E 004°28'  

Dump ship's entire track history